Enter the Airport ICAO Code

Search by Airport or City

Current Weather

SKCL | Alfonso Bonilla Aragón International Airport

Cali, Colombia

Last Update 38 Minutes Ago

Sky with Few Clouds

Temperature of 27 ºC

Moderate Winds from NorthWest

Temperature

27 ºC

Dew Point Temperature

20 ºC

Relative Humidity

65.73 %

Wind Direction

NorthWest (310º, Without Significant Variations)

Wind Velocity

19 km/h (10 kt)

Gusts

None

Visibility

Greater than 10 Kilometers

Sea Level Pressure

1012 hPa (Hectopascals)

Layers of Clouds

5% to 30% of Sky Covered from 610 mts (2000 ft) Above Ground Level.

METAR SKCL 052200Z 31010KT 9999 FEW020 27/20 Q1012 NOSIG RMK A2991

Weather Forecast

SKCL | Alfonso Bonilla Aragón International Airport

Cali, Colombia

Forecast valid for the next 25 Hours

In 1 hour it is expected the begining of:

Partly Cloudy Sky

Light to Moderate Winds from North

In 5 to 6 hours it is expected the begining of:

Mostly Cloudy Sky

Light Winds from Variable Directions

In 20 to 21 hours it is expected the begining of:

Partly Cloudy Sky

Moderate Winds from NorthWest

In 21 hours it is expected the begining of 3 hours with intermittent periods of:

Thunderstorm with Rain

Maximum Temperature

No Data

Minimum Temperature

No Data

TAF SKCL 052230Z 0600/0624 34008KT 9999 FEW023 SCT120 BECMG 0604/0605 VRB03KT FEW020 BKN100 BECMG 0619/0620 30010KT SCT025TCU PROB40 TEMPO 0620/0623 TSRA SCT020CB BKN100 TX30/0619Z TN19/0611Z